KNZY/NZY METAR and TAF weather

Enter ICAO airport designator
Station Type Date Time Source
KNZY METAR 2022/11/30 17:52 UTC NOAA

KNZY 301752Z VRB03KT 10SM BKN030 14/09 A3006 RMK AO2 SLP177 T01440089 10150 20106 51009


Station Type Date Time Source
KNZY Decoded METAR 2022/11/30 17:52 UTC NOAA

NAS NORTH ISLAND, SAN DIEGO, CA, United States (KNZY) 32-42N 117-13W 14M
Nov 30, 2022 - 12:52 PM EST / 2022.11.30 1752 UTC
Wind: Variable at 3 MPH (3 KT):0
Visibility: 10 mile(s):0
Sky conditions: mostly cloudy
Temperature: 57.9 F (14.4 C)
Dew Point: 48.0 F (8.9 C)
Relative Humidity: 69%
Pressure (altimeter): 30.06 in. Hg (1017 hPa)
Pressure tendency: 0.03 inches (0.9 hPa) higher than three hours ago
ob: KNZY 301752Z VRB03KT 10SM BKN030 14/09 A3006 RMK AO2 SLP177 T01440089 10150 20106 51009
cycle: 18

Station Type Date Time Source
KNZY TAF 2022/11/30 18:13 UTC NOAA

TAF
AMD KNZY 3018/0115 VRB04KT 9999 BKN035 QNH3002INS
FM302000 22008KT 9999 SCT035 QNH2994INS
FM010200 VRB04KT 9999 BKN030 QNH2998INS
TEMPO 0102/0108 BKN020
FM010800 VRB04KT 9999 BKN025 QNH3000INS T18/3021Z T11/0114Z
AMD 1805 FS30160

Example: see airport list